createdAt,value
2018-01-08T00:00:21.055Z,0
2018-01-08T00:01:01.631Z,0
2018-01-08T00:01:42.182Z,0
2018-01-08T00:02:22.815Z,0
2018-01-08T00:03:03.377Z,0
2018-01-08T00:03:43.979Z,0
2018-01-08T00:04:24.631Z,0
2018-01-08T00:05:05.200Z,0
2018-01-08T00:05:45.770Z,0
2018-01-08T00:06:26.326Z,0
2018-01-08T00:07:06.896Z,0
2018-01-08T00:07:47.450Z,0
2018-01-08T00:08:28.022Z,0
2018-01-08T00:09:08.606Z,0
2018-01-08T00:09:49.224Z,0
2018-01-08T00:10:29.792Z,0
2018-01-08T00:11:10.371Z,0
2018-01-08T00:11:50.952Z,0
2018-01-08T00:12:31.528Z,0
2018-01-08T00:13:12.117Z,0
2018-01-08T00:13:52.680Z,0
2018-01-08T00:14:33.236Z,0
2018-01-08T00:15:13.817Z,0
2018-01-08T00:15:54.393Z,0
2018-01-08T00:16:34.985Z,0
2018-01-08T00:17:15.537Z,0
2018-01-08T00:17:56.109Z,0
2018-01-08T00:18:36.679Z,0
2018-01-08T00:19:17.252Z,0
2018-01-08T00:19:57.822Z,0
2018-01-08T00:20:38.372Z,0
2018-01-08T00:21:18.938Z,0
2018-01-08T00:21:59.512Z,0
2018-01-08T00:22:40.107Z,0
2018-01-08T00:23:20.699Z,0
2018-01-08T00:24:01.250Z,0
2018-01-08T00:24:41.798Z,0
2018-01-08T00:25:22.370Z,0
2018-01-08T00:26:02.968Z,0
2018-01-08T00:26:45.022Z,0
2018-01-08T00:27:25.585Z,0
2018-01-08T00:28:06.180Z,0
2018-01-08T00:28:46.761Z,0
2018-01-08T00:29:27.377Z,0
2018-01-08T00:30:07.931Z,0
2018-01-08T00:30:48.555Z,0
2018-01-08T00:31:29.061Z,0
2018-01-08T00:32:09.627Z,0
2018-01-08T00:32:50.195Z,0
2018-01-08T00:33:30.756Z,0
2018-01-08T00:34:11.318Z,0
2018-01-08T00:34:51.871Z,0
2018-01-08T00:35:32.445Z,0
2018-01-08T00:36:13.030Z,0
2018-01-08T00:36:53.580Z,0
2018-01-08T00:37:34.156Z,0
2018-01-08T00:38:14.728Z,0
2018-01-08T00:38:55.302Z,0
2018-01-08T00:39:35.867Z,0
2018-01-08T00:40:16.427Z,0
2018-01-08T00:40:57.014Z,0
2018-01-08T00:41:37.646Z,0
2018-01-08T00:42:18.256Z,0
2018-01-08T00:42:58.866Z,0
2018-01-08T00:43:39.419Z,0
2018-01-08T00:44:20.009Z,0
2018-01-08T00:45:00.565Z,0
2018-01-08T00:45:41.132Z,0
2018-01-08T00:46:21.719Z,0
2018-01-08T00:47:02.291Z,0
2018-01-08T00:47:42.858Z,0
2018-01-08T00:48:23.451Z,0
2018-01-08T00:49:04.027Z,0
2018-01-08T00:49:44.616Z,0
2018-01-08T00:50:25.231Z,0
2018-01-08T00:51:05.808Z,0
2018-01-08T00:51:46.376Z,0
2018-01-08T00:52:26.958Z,0
2018-01-08T00:53:07.558Z,0
2018-01-08T00:53:48.185Z,0
2018-01-08T00:54:28.789Z,0
2018-01-08T00:55:09.403Z,0
2018-01-08T00:55:49.998Z,0
2018-01-08T00:56:30.613Z,0
2018-01-08T00:57:11.190Z,0
2018-01-08T00:57:51.801Z,0
2018-01-08T00:58:32.414Z,0
2018-01-08T00:59:13.001Z,0
2018-01-08T00:59:53.607Z,0
2018-01-08T01:00:34.205Z,0
2018-01-08T01:01:14.771Z,0
2018-01-08T01:01:55.360Z,0
2018-01-08T01:02:35.949Z,0
2018-01-08T01:03:16.531Z,0
2018-01-08T01:03:57.129Z,0
2018-01-08T01:04:37.778Z,0
2018-01-08T01:05:18.373Z,0
2018-01-08T01:05:58.977Z,0
2018-01-08T01:06:39.633Z,0
2018-01-08T01:07:20.191Z,0
2018-01-08T01:08:00.779Z,0
2018-01-08T01:08:41.383Z,0
2018-01-08T01:09:22.032Z,0
2018-01-08T01:10:02.642Z,0
2018-01-08T01:10:43.196Z,0
2018-01-08T01:11:23.778Z,0
2018-01-08T01:12:04.346Z,0
2018-01-08T01:12:44.947Z,0
2018-01-08T01:13:25.552Z,0
2018-01-08T01:14:06.140Z,0
2018-01-08T01:14:46.734Z,0
2018-01-08T01:15:27.365Z,0
2018-01-08T01:16:07.971Z,0
2018-01-08T01:16:48.560Z,0
2018-01-08T01:17:29.162Z,0
2018-01-08T01:18:09.764Z,0
2018-01-08T01:18:50.374Z,0
2018-01-08T01:19:30.944Z,0
2018-01-08T01:20:11.512Z,0
2018-01-08T01:20:52.088Z,0
2018-01-08T01:21:32.661Z,0
2018-01-08T01:22:13.258Z,0
2018-01-08T01:22:53.837Z,0
2018-01-08T01:23:34.441Z,0
2018-01-08T01:24:15.035Z,0
2018-01-08T01:24:55.624Z,0
2018-01-08T01:25:36.248Z,0
2018-01-08T01:26:16.869Z,0
2018-01-08T01:26:57.538Z,0
2018-01-08T01:27:38.110Z,0
2018-01-08T01:28:18.706Z,0
2018-01-08T01:28:59.315Z,0
2018-01-08T01:29:39.926Z,0
2018-01-08T01:30:20.487Z,0
2018-01-08T01:31:01.096Z,0
2018-01-08T01:31:41.685Z,0
2018-01-08T01:32:22.266Z,0
2018-01-08T01:33:02.830Z,0
2018-01-08T01:33:43.442Z,0
2018-01-08T01:34:24.027Z,0
2018-01-08T01:35:04.648Z,0
2018-01-08T01:35:45.258Z,0
2018-01-08T01:36:25.842Z,0
2018-01-08T01:37:06.465Z,0
2018-01-08T01:37:47.036Z,0
2018-01-08T01:38:27.648Z,0
2018-01-08T01:39:08.250Z,0
2018-01-08T01:39:48.852Z,0
2018-01-08T01:40:29.449Z,0
2018-01-08T01:41:10.040Z,0
2018-01-08T01:41:50.614Z,0
2018-01-08T01:42:31.178Z,0
2018-01-08T01:43:11.747Z,0
2018-01-08T01:43:52.328Z,0
2018-01-08T01:44:32.897Z,0
2018-01-08T01:45:13.483Z,0
2018-01-08T01:45:54.033Z,0
2018-01-08T01:46:34.618Z,0
2018-01-08T01:47:15.243Z,0
2018-01-08T01:47:55.802Z,0
2018-01-08T01:48:36.394Z,0
2018-01-08T01:49:16.960Z,0
2018-01-08T01:49:57.534Z,0
2018-01-08T01:50:38.123Z,0
2018-01-08T01:51:18.696Z,0
2018-01-08T01:51:59.273Z,0
2018-01-08T01:52:39.847Z,0
2018-01-08T01:53:20.433Z,0
2018-01-08T01:54:01.018Z,0
2018-01-08T01:54:41.592Z,0
2018-01-08T01:55:22.198Z,0
2018-01-08T01:56:05.729Z,0
2018-01-08T01:56:46.318Z,0
2018-01-08T01:57:26.910Z,0
2018-01-08T01:58:07.468Z,0
2018-01-08T01:58:48.057Z,0
2018-01-08T01:59:28.632Z,0
2018-01-08T02:00:09.200Z,0
2018-01-08T02:00:49.758Z,0
2018-01-08T02:01:30.319Z,0
2018-01-08T02:02:10.912Z,0
2018-01-08T02:02:51.490Z,0
2018-01-08T02:03:32.088Z,0
2018-01-08T02:04:12.668Z,0
2018-01-08T02:04:53.232Z,0
2018-01-08T02:05:33.861Z,0
2018-01-08T02:06:14.427Z,0
2018-01-08T02:06:54.997Z,0
2018-01-08T02:07:35.578Z,0
2018-01-08T02:08:16.197Z,0
2018-01-08T02:08:56.772Z,0
2018-01-08T02:09:37.383Z,0
2018-01-08T02:10:17.953Z,0
2018-01-08T02:10:58.528Z,0
2018-01-08T02:11:39.090Z,0
2018-01-08T02:12:19.642Z,0
2018-01-08T02:13:00.203Z,0
2018-01-08T02:13:40.743Z,0
2018-01-08T02:14:21.305Z,0
2018-01-08T02:15:01.873Z,0
2018-01-08T02:15:42.447Z,0
2018-01-08T02:16:23.013Z,0
2018-01-08T02:17:03.586Z,0
2018-01-08T02:17:44.153Z,0
2018-01-08T02:18:24.704Z,0
2018-01-08T02:19:05.299Z,0
2018-01-08T02:19:45.860Z,0
2018-01-08T02:20:26.413Z,0
2018-01-08T02:21:06.987Z,0
2018-01-08T02:21:47.623Z,0
2018-01-08T02:22:28.207Z,0
2018-01-08T02:23:08.780Z,0
2018-01-08T02:23:49.358Z,0
2018-01-08T02:24:29.943Z,0
2018-01-08T02:25:10.522Z,0
2018-01-08T02:25:51.072Z,0
2018-01-08T02:26:31.659Z,0
2018-01-08T02:27:12.214Z,0
2018-01-08T02:27:52.772Z,0
2018-01-08T02:28:33.342Z,0
2018-01-08T02:29:13.912Z,0
2018-01-08T02:29:54.474Z,0
2018-01-08T02:30:35.053Z,0
2018-01-08T02:31:15.629Z,0
2018-01-08T02:31:56.220Z,0
2018-01-08T02:32:36.831Z,0
2018-01-08T02:33:17.413Z,0
2018-01-08T02:33:57.990Z,0
2018-01-08T02:34:38.544Z,0
2018-01-08T02:35:19.108Z,0
2018-01-08T02:35:59.706Z,0
2018-01-08T02:36:40.280Z,0
2018-01-08T02:37:20.850Z,0
2018-01-08T02:38:01.419Z,0
2018-01-08T02:38:42.001Z,0
2018-01-08T02:39:22.565Z,0
2018-01-08T02:40:03.138Z,0
2018-01-08T02:40:43.700Z,0
2018-01-08T02:41:24.305Z,0
2018-01-08T02:42:04.873Z,0
2018-01-08T02:42:45.425Z,0
2018-01-08T02:43:26.017Z,0
2018-01-08T02:44:06.592Z,0
2018-01-08T02:44:47.164Z,0
2018-01-08T02:45:27.726Z,0
2018-01-08T02:46:08.308Z,0
2018-01-08T02:46:48.877Z,0
2018-01-08T02:47:29.478Z,0
2018-01-08T02:48:10.039Z,0
2018-01-08T02:48:50.631Z,0
2018-01-08T02:49:31.227Z,0
2018-01-08T02:50:11.789Z,0
2018-01-08T02:50:52.355Z,0
2018-01-08T02:51:32.961Z,0
2018-01-08T02:52:13.573Z,0
2018-01-08T02:52:54.166Z,0
2018-01-08T02:53:34.718Z,0
2018-01-08T02:54:15.282Z,0
2018-01-08T02:54:55.843Z,0
2018-01-08T02:55:36.404Z,0
2018-01-08T02:56:16.981Z,0
2018-01-08T02:56:57.555Z,0
2018-01-08T02:57:38.123Z,0
2018-01-08T02:58:18.700Z,0
2018-01-08T02:58:59.340Z,0
2018-01-08T02:59:39.904Z,0
2018-01-08T03:00:20.478Z,0
2018-01-08T03:01:01.061Z,0
2018-01-08T03:01:41.625Z,0
2018-01-08T03:02:22.213Z,0
2018-01-08T03:03:02.774Z,0
2018-01-08T03:03:43.336Z,0
2018-01-08T03:04:23.911Z,0
2018-01-08T03:05:04.490Z,0
2018-01-08T03:05:45.088Z,0
2018-01-08T03:06:25.651Z,0
2018-01-08T03:07:06.226Z,0
2018-01-08T03:07:46.794Z,0
2018-01-08T03:08:27.371Z,0
2018-01-08T03:09:07.947Z,0
2018-01-08T03:09:48.499Z,0
2018-01-08T03:10:29.114Z,0
2018-01-08T03:11:09.660Z,0
2018-01-08T03:11:50.247Z,0
2018-01-08T03:12:30.812Z,0
2018-01-08T03:13:11.371Z,0
2018-01-08T03:13:51.929Z,0
2018-01-08T03:14:32.505Z,0
2018-01-08T03:15:13.074Z,0
2018-01-08T03:15:53.642Z,0
2018-01-08T03:16:34.210Z,0
2018-01-08T03:17:14.780Z,0
2018-01-08T03:17:55.334Z,0
2018-01-08T03:18:35.905Z,0
2018-01-08T03:19:16.472Z,0
2018-01-08T03:19:57.038Z,0
2018-01-08T03:20:37.611Z,0
2018-01-08T03:21:18.192Z,0
2018-01-08T03:21:58.774Z,0
2018-01-08T03:22:39.351Z,0
2018-01-08T03:23:19.918Z,0
2018-01-08T03:24:00.485Z,0
2018-01-08T03:24:41.060Z,0
2018-01-08T03:25:21.613Z,0
2018-01-08T03:26:02.172Z,0
2018-01-08T03:26:42.755Z,0
2018-01-08T03:27:23.329Z,0
2018-01-08T03:28:03.889Z,0
2018-01-08T03:28:44.440Z,0
2018-01-08T03:29:24.983Z,0
2018-01-08T03:30:05.566Z,0
2018-01-08T03:30:46.151Z,0
2018-01-08T03:31:26.714Z,0
2018-01-08T03:32:07.284Z,0
2018-01-08T03:32:47.841Z,0
2018-01-08T03:33:28.407Z,0
2018-01-08T03:34:08.980Z,0
2018-01-08T03:34:49.566Z,0
2018-01-08T03:35:30.124Z,0
2018-01-08T03:36:10.731Z,0
2018-01-08T03:36:51.280Z,0
2018-01-08T03:37:31.847Z,0
2018-01-08T03:38:12.416Z,0
2018-01-08T03:38:52.974Z,0
2018-01-08T03:39:33.532Z,0
2018-01-08T03:40:14.110Z,0
2018-01-08T03:40:54.681Z,0
2018-01-08T03:41:35.249Z,0
2018-01-08T03:42:15.847Z,0
2018-01-08T03:42:56.455Z,0
2018-01-08T03:43:37.045Z,0
2018-01-08T03:44:17.645Z,0
2018-01-08T03:44:58.232Z,0
2018-01-08T03:45:38.786Z,0
2018-01-08T03:46:19.341Z,0
2018-01-08T03:46:59.902Z,0
2018-01-08T03:47:40.468Z,0
2018-01-08T03:48:21.022Z,0
2018-01-08T03:49:01.577Z,0
2018-01-08T03:49:42.131Z,0
2018-01-08T03:50:22.710Z,0
2018-01-08T03:51:03.284Z,0
2018-01-08T03:51:43.870Z,0
2018-01-08T03:52:24.435Z,0
2018-01-08T03:53:04.993Z,0
2018-01-08T03:53:45.562Z,0
2018-01-08T03:54:26.128Z,0
2018-01-08T03:55:06.744Z,0
2018-01-08T03:55:47.322Z,0
2018-01-08T03:56:27.884Z,0
2018-01-08T03:57:08.438Z,0
2018-01-08T03:57:49.016Z,0
2018-01-08T03:58:29.574Z,0
2018-01-08T03:59:10.132Z,0
2018-01-08T03:59:50.702Z,0
2018-01-08T04:00:31.277Z,0
2018-01-08T04:01:11.870Z,0
2018-01-08T04:01:52.428Z,0
2018-01-08T04:02:32.995Z,0
2018-01-08T04:03:13.586Z,0
2018-01-08T04:03:54.143Z,0
2018-01-08T04:04:34.730Z,0
2018-01-08T04:05:15.306Z,0
2018-01-08T04:05:55.862Z,0
2018-01-08T04:06:36.445Z,0
2018-01-08T04:07:17.007Z,0
2018-01-08T04:07:57.620Z,0
2018-01-08T04:08:38.194Z,0
2018-01-08T04:09:18.782Z,0
2018-01-08T04:09:59.343Z,0
2018-01-08T04:10:39.920Z,0
2018-01-08T04:11:20.524Z,0
2018-01-08T04:12:01.100Z,0
2018-01-08T04:12:41.659Z,0
2018-01-08T04:13:22.218Z,0
2018-01-08T04:14:02.795Z,0
2018-01-08T04:14:43.367Z,0
2018-01-08T04:15:23.923Z,0
2018-01-08T04:16:04.500Z,0
2018-01-08T04:16:45.065Z,0
2018-01-08T04:17:25.646Z,0
2018-01-08T04:18:06.235Z,0
2018-01-08T04:18:46.802Z,0
2018-01-08T04:19:27.385Z,0
2018-01-08T04:20:07.977Z,0
2018-01-08T04:20:48.534Z,0
2018-01-08T04:21:29.100Z,0
2018-01-08T04:22:09.659Z,0
2018-01-08T04:22:50.232Z,0
2018-01-08T04:23:30.805Z,0
2018-01-08T04:24:11.369Z,0
2018-01-08T04:24:51.937Z,0
2018-01-08T04:25:32.530Z,0
2018-01-08T04:26:13.119Z,0
2018-01-08T04:26:53.658Z,0
2018-01-08T04:27:34.233Z,0
2018-01-08T04:28:14.801Z,0
2018-01-08T04:28:55.359Z,0
2018-01-08T04:29:35.932Z,0
2018-01-08T04:30:16.499Z,0
2018-01-08T04:30:57.058Z,0
2018-01-08T04:31:37.612Z,0
2018-01-08T04:32:18.172Z,0
2018-01-08T04:32:58.760Z,0
2018-01-08T04:33:39.331Z,0
2018-01-08T04:34:19.892Z,0
2018-01-08T04:35:00.458Z,0
2018-01-08T04:35:41.030Z,0
2018-01-08T04:36:21.615Z,0
2018-01-08T04:37:02.177Z,0
2018-01-08T04:37:42.748Z,0
2018-01-08T04:38:23.342Z,0
2018-01-08T04:39:03.926Z,0
2018-01-08T04:39:44.510Z,0
2018-01-08T04:40:25.081Z,0
2018-01-08T04:41:05.660Z,0
2018-01-08T04:41:46.216Z,0
2018-01-08T04:42:26.775Z,0
2018-01-08T04:43:07.342Z,0
2018-01-08T04:43:47.900Z,0
2018-01-08T04:44:28.468Z,0
2018-01-08T04:45:09.020Z,0
2018-01-08T04:45:49.594Z,0
2018-01-08T04:46:30.154Z,0
2018-01-08T04:47:10.731Z,0
2018-01-08T04:47:51.307Z,0
2018-01-08T04:48:31.884Z,0
2018-01-08T04:49:12.450Z,0
2018-01-08T04:49:53.021Z,0
2018-01-08T04:50:33.590Z,0
2018-01-08T04:51:14.154Z,0
2018-01-08T04:51:54.731Z,0
2018-01-08T04:52:35.287Z,0
2018-01-08T04:53:15.855Z,0
2018-01-08T04:53:56.421Z,0
2018-01-08T04:54:37.021Z,0
2018-01-08T04:55:17.586Z,0
2018-01-08T04:55:58.146Z,0
2018-01-08T04:56:38.725Z,0
2018-01-08T04:57:19.333Z,0
2018-01-08T04:57:59.899Z,0
2018-01-08T04:58:40.480Z,0
2018-01-08T04:59:21.038Z,0
2018-01-08T05:00:01.635Z,0
2018-01-08T05:00:42.207Z,0
2018-01-08T05:01:22.789Z,0
2018-01-08T05:02:03.397Z,0
2018-01-08T05:02:43.993Z,0
2018-01-08T05:03:24.575Z,0
2018-01-08T05:04:05.146Z,0
2018-01-08T05:04:45.724Z,0
2018-01-08T05:05:26.292Z,0
2018-01-08T05:06:06.862Z,0
2018-01-08T05:06:47.460Z,0
2018-01-08T05:07:28.033Z,0
2018-01-08T05:08:08.618Z,0
2018-01-08T05:08:49.212Z,0
2018-01-08T05:09:29.776Z,0
2018-01-08T05:10:10.353Z,0
2018-01-08T05:10:50.924Z,0
2018-01-08T05:11:31.508Z,0
2018-01-08T05:12:12.063Z,0
2018-01-08T05:12:52.629Z,0
2018-01-08T05:13:33.224Z,0
2018-01-08T05:14:13.804Z,0
2018-01-08T05:14:54.383Z,0
2018-01-08T05:15:34.939Z,0
2018-01-08T05:16:15.504Z,0
2018-01-08T05:16:56.080Z,0
2018-01-08T05:17:36.631Z,0
2018-01-08T05:18:17.185Z,0
2018-01-08T05:18:57.753Z,0
2018-01-08T05:19:38.339Z,0
2018-01-08T05:20:18.909Z,0
2018-01-08T05:20:59.520Z,0
2018-01-08T05:21:40.077Z,0
2018-01-08T05:22:20.639Z,0
2018-01-08T05:23:01.231Z,0
2018-01-08T05:23:41.766Z,0
2018-01-08T05:24:22.326Z,0
2018-01-08T05:25:02.897Z,0
2018-01-08T05:25:43.452Z,0
2018-01-08T05:26:26.797Z,0
2018-01-08T05:27:07.375Z,0
2018-01-08T05:27:47.962Z,0
2018-01-08T05:28:28.536Z,0
2018-01-08T05:29:09.106Z,0
2018-01-08T05:29:49.704Z,0
2018-01-08T05:30:30.287Z,0
2018-01-08T05:31:10.831Z,0
2018-01-08T05:31:51.382Z,0
2018-01-08T05:32:31.936Z,0
2018-01-08T05:33:12.487Z,0
2018-01-08T05:33:53.074Z,0
2018-01-08T05:34:33.633Z,0
2018-01-08T05:35:14.211Z,0
2018-01-08T05:35:54.802Z,0
2018-01-08T05:36:35.379Z,0
2018-01-08T05:37:15.942Z,0
2018-01-08T05:37:56.500Z,0
2018-01-08T05:38:37.068Z,0
2018-01-08T05:39:17.645Z,0
2018-01-08T05:39:58.217Z,0
2018-01-08T05:40:38.788Z,0
2018-01-08T05:41:19.356Z,0
2018-01-08T05:41:59.922Z,0
2018-01-08T05:42:40.484Z,0
2018-01-08T05:43:21.034Z,0
2018-01-08T05:44:01.600Z,0
2018-01-08T05:44:42.154Z,0
2018-01-08T05:45:22.709Z,0
2018-01-08T05:46:03.277Z,0
2018-01-08T05:46:43.858Z,0
2018-01-08T05:47:24.428Z,0
2018-01-08T05:48:04.976Z,0
2018-01-08T05:48:45.603Z,0
2018-01-08T05:49:26.170Z,0
2018-01-08T05:50:06.730Z,0
2018-01-08T05:50:47.307Z,0
2018-01-08T05:51:27.875Z,0
2018-01-08T05:52:08.443Z,0
2018-01-08T05:52:48.997Z,0
2018-01-08T05:53:29.572Z,0
2018-01-08T05:54:10.142Z,0
2018-01-08T05:54:50.719Z,0
2018-01-08T05:55:32.943Z,0
2018-01-08T05:56:13.507Z,0
2018-01-08T05:56:54.068Z,0
2018-01-08T05:57:34.654Z,0
2018-01-08T05:58:15.217Z,0
2018-01-08T05:58:55.779Z,0
2018-01-08T05:59:36.339Z,0
2018-01-08T06:00:16.887Z,0
2018-01-08T06:00:57.457Z,0
2018-01-08T06:01:38.030Z,0
2018-01-08T06:02:18.589Z,0
2018-01-08T06:02:59.220Z,0
2018-01-08T06:03:39.775Z,0
2018-01-08T06:04:20.345Z,0
2018-01-08T06:05:00.994Z,0
2018-01-08T06:05:41.480Z,0
2018-01-08T06:06:22.060Z,0
2018-01-08T06:07:02.630Z,0
2018-01-08T06:07:43.196Z,0
2018-01-08T06:08:23.760Z,0
2018-01-08T06:09:04.341Z,0
2018-01-08T06:09:44.910Z,0
2018-01-08T06:10:25.482Z,0
2018-01-08T06:11:06.052Z,0
2018-01-08T06:11:46.624Z,0
2018-01-08T06:12:27.190Z,0
2018-01-08T06:13:07.749Z,0
2018-01-08T06:13:48.361Z,0
2018-01-08T06:14:28.950Z,0
2018-01-08T06:15:09.544Z,0
2018-01-08T06:15:50.098Z,0
2018-01-08T06:16:30.691Z,0
2018-01-08T06:17:11.422Z,0
2018-01-08T06:17:51.992Z,0
2018-01-08T06:18:32.574Z,0
2018-01-08T06:19:13.146Z,4
2018-01-08T06:19:53.710Z,4
2018-01-08T06:20:34.279Z,0
2018-01-08T06:21:14.849Z,0
2018-01-08T06:21:55.410Z,0
2018-01-08T06:22:36.128Z,0
2018-01-08T06:23:16.689Z,4
2018-01-08T06:23:57.252Z,4
2018-01-08T06:24:37.814Z,4
2018-01-08T06:25:18.379Z,4
2018-01-08T06:25:58.937Z,4
2018-01-08T06:26:39.520Z,4
2018-01-08T06:27:20.087Z,0
2018-01-08T06:28:00.660Z,0
2018-01-08T06:28:41.226Z,4
2018-01-08T06:29:21.795Z,0
2018-01-08T06:30:02.351Z,4
2018-01-08T06:30:42.905Z,4
2018-01-08T06:31:23.479Z,4
2018-01-08T06:32:04.232Z,4
2018-01-08T06:32:44.684Z,4
2018-01-08T06:33:25.604Z,4
2018-01-08T06:34:06.065Z,4
2018-01-08T06:34:46.639Z,4
2018-01-08T06:35:27.212Z,4
2018-01-08T06:36:07.772Z,0
2018-01-08T06:36:48.398Z,0
2018-01-08T06:37:28.976Z,0
2018-01-08T06:38:09.575Z,0
2018-01-08T06:38:50.173Z,4
2018-01-08T06:39:30.740Z,4
2018-01-08T06:40:11.314Z,4
2018-01-08T06:40:51.884Z,4
2018-01-08T06:41:32.463Z,4
2018-01-08T06:42:13.020Z,4
2018-01-08T06:42:53.609Z,8
2018-01-08T06:43:34.180Z,4
2018-01-08T06:44:14.743Z,8
2018-01-08T06:44:55.316Z,4
2018-01-08T06:45:35.886Z,8
2018-01-08T06:46:16.441Z,8
2018-01-08T06:46:57.011Z,12
2018-01-08T06:47:37.639Z,8
2018-01-08T06:48:18.209Z,8
2018-01-08T06:48:58.791Z,12
2018-01-08T06:49:39.388Z,12
2018-01-08T06:50:20.008Z,12
2018-01-08T06:51:00.577Z,16
2018-01-08T06:51:41.271Z,16
2018-01-08T06:52:21.912Z,20
2018-01-08T06:53:02.503Z,20
2018-01-08T06:53:43.227Z,24
2018-01-08T06:54:23.800Z,24
2018-01-08T06:55:04.350Z,28
2018-01-08T06:55:44.922Z,32
2018-01-08T06:56:25.514Z,32
2018-01-08T06:57:06.086Z,36
2018-01-08T06:57:46.676Z,44
2018-01-08T06:58:27.247Z,44
2018-01-08T06:59:07.908Z,48
2018-01-08T06:59:48.411Z,52
2018-01-08T07:00:28.975Z,52
2018-01-08T07:01:09.574Z,60
2018-01-08T07:01:50.158Z,64
2018-01-08T07:02:30.737Z,72
2018-01-08T07:03:11.315Z,76
2018-01-08T07:03:51.904Z,76
2018-01-08T07:04:32.512Z,84
2018-01-08T07:05:13.111Z,92
2018-01-08T07:05:53.699Z,96
2018-01-08T07:06:34.264Z,104
2018-01-08T07:07:14.817Z,108
2018-01-08T07:07:55.390Z,116
2018-01-08T07:08:35.955Z,120
2018-01-08T07:09:16.558Z,132
2018-01-08T07:09:57.113Z,136
2018-01-08T07:10:37.681Z,144
2018-01-08T07:11:18.254Z,148
2018-01-08T07:11:58.827Z,160
2018-01-08T07:12:39.394Z,164
2018-01-08T07:13:19.969Z,172
2018-01-08T07:14:00.587Z,180
2018-01-08T07:14:41.160Z,188
2018-01-08T07:15:21.724Z,196
2018-01-08T07:16:02.459Z,204
2018-01-08T07:16:43.018Z,216
2018-01-08T07:17:23.586Z,224
2018-01-08T07:18:04.149Z,232
2018-01-08T07:18:44.708Z,240
2018-01-08T07:19:25.276Z,248
2018-01-08T07:20:05.846Z,260
2018-01-08T07:20:46.431Z,268
2018-01-08T07:23:20.277Z,304
2018-01-08T07:24:00.851Z,312
2018-01-08T07:24:41.468Z,324
2018-01-08T07:25:22.030Z,332
2018-01-08T07:26:02.680Z,344
2018-01-08T07:26:43.217Z,356
2018-01-08T07:27:23.768Z,364
2018-01-08T07:28:04.321Z,376
2018-01-08T07:28:44.882Z,388
2018-01-08T07:29:25.438Z,404
2018-01-08T07:30:06.023Z,412
2018-01-08T07:30:46.581Z,424
2018-01-08T07:31:27.152Z,436
2018-01-08T07:32:07.714Z,452
2018-01-08T07:32:48.278Z,460
2018-01-08T07:33:28.899Z,472
2018-01-08T07:34:09.466Z,480
2018-01-08T07:34:50.010Z,488
2018-01-08T07:35:30.582Z,496
2018-01-08T07:36:11.174Z,508
2018-01-08T07:36:51.749Z,520
2018-01-08T07:37:32.358Z,536
2018-01-08T07:38:13.001Z,548
2018-01-08T07:38:53.558Z,564
2018-01-08T07:39:34.122Z,576
2018-01-08T07:40:14.708Z,584
2018-01-08T07:40:55.251Z,596
2018-01-08T07:41:35.844Z,612
2018-01-08T07:42:16.388Z,624
2018-01-08T07:42:56.946Z,636
2018-01-08T07:43:37.493Z,648
2018-01-08T07:44:18.065Z,664
2018-01-08T07:44:58.625Z,680
2018-01-08T07:45:39.231Z,692
2018-01-08T07:46:19.810Z,704
2018-01-08T07:47:00.366Z,716
2018-01-08T07:47:40.924Z,732
2018-01-08T07:48:21.486Z,744
2018-01-08T07:49:02.099Z,760
2018-01-08T07:49:42.658Z,772
2018-01-08T07:50:23.224Z,792
2018-01-08T07:51:03.815Z,808
2018-01-08T07:51:44.393Z,824
2018-01-08T07:52:24.976Z,836
2018-01-08T07:53:05.539Z,864
2018-01-08T07:53:46.098Z,884
2018-01-08T07:54:26.657Z,900
2018-01-08T07:55:07.230Z,916
2018-01-08T07:55:47.786Z,948
2018-01-08T07:56:28.341Z,960
2018-01-08T07:57:08.889Z,984
2018-01-08T07:57:49.454Z,1004
2018-01-08T07:58:30.038Z,1012
2018-01-08T07:59:10.600Z,996
2018-01-08T07:59:51.160Z,1004
2018-01-08T08:00:31.716Z,1020
2018-01-08T08:01:12.300Z,1036
2018-01-08T08:01:52.874Z,1060
2018-01-08T08:02:33.434Z,1076
2018-01-08T08:03:14.007Z,1092
2018-01-08T08:03:54.561Z,1108
2018-01-08T08:04:35.110Z,1144
2018-01-08T08:05:15.662Z,1160
2018-01-08T08:05:56.216Z,1164
2018-01-08T08:06:36.789Z,1176
2018-01-08T08:07:17.355Z,1200
2018-01-08T08:07:57.927Z,1220
2018-01-08T08:08:38.490Z,1260
2018-01-08T08:09:19.057Z,1264
2018-01-08T08:09:59.662Z,1292
2018-01-08T08:10:40.236Z,1324
2018-01-08T08:11:20.815Z,1332
2018-01-08T08:12:01.380Z,1344
2018-01-08T08:12:41.955Z,1352
2018-01-08T08:13:22.509Z,1388
2018-01-08T08:14:03.101Z,1368
2018-01-08T08:14:43.679Z,1408
2018-01-08T08:15:24.238Z,1384
2018-01-08T08:16:04.806Z,1388
2018-01-08T08:16:45.381Z,1388
2018-01-08T08:17:25.939Z,1396
2018-01-08T08:18:06.521Z,1400
2018-01-08T08:18:47.073Z,1416
2018-01-08T08:19:27.635Z,1448
2018-01-08T08:20:08.200Z,1448
2018-01-08T08:20:48.780Z,1448
2018-01-08T08:21:29.345Z,1476
2018-01-08T08:22:09.904Z,1476
2018-01-08T08:22:50.450Z,1512
2018-01-08T08:23:31.002Z,1500
2018-01-08T08:24:11.567Z,1504
2018-01-08T08:24:52.133Z,1496
2018-01-08T08:25:32.686Z,1500
2018-01-08T08:26:13.267Z,1516
2018-01-08T08:26:53.827Z,1536
2018-01-08T08:27:34.380Z,1560
2018-01-08T08:28:14.938Z,1588
2018-01-08T08:28:55.505Z,1588
2018-01-08T08:29:36.062Z,1624
2018-01-08T08:30:16.638Z,1628
2018-01-08T08:30:57.226Z,1652
2018-01-08T08:31:37.814Z,1656
2018-01-08T08:32:18.424Z,1664
2018-01-08T08:32:58.980Z,1656
2018-01-08T08:33:39.539Z,1652
2018-01-08T08:34:20.096Z,1648
2018-01-08T08:35:00.652Z,1656
2018-01-08T08:35:41.208Z,1668
2018-01-08T08:36:21.777Z,1664
2018-01-08T08:37:02.371Z,1636
2018-01-08T08:37:42.937Z,1660
2018-01-08T08:38:23.554Z,1652
2018-01-08T08:39:04.118Z,1680
2018-01-08T08:39:44.700Z,1676
2018-01-08T08:40:25.294Z,1688
2018-01-08T08:41:05.842Z,1752
2018-01-08T08:41:46.401Z,1720
2018-01-08T08:42:26.973Z,1716
2018-01-08T08:43:07.533Z,1692
2018-01-08T08:43:48.107Z,1748
2018-01-08T08:44:28.722Z,1776
2018-01-08T08:45:09.291Z,1788
2018-01-08T08:45:49.855Z,1836
2018-01-08T08:46:30.420Z,1844
2018-01-08T08:47:10.995Z,1864
2018-01-08T08:47:51.576Z,1852
2018-01-08T08:48:32.139Z,1848
2018-01-08T08:49:12.704Z,1856
2018-01-08T08:49:53.272Z,1872
2018-01-08T08:50:33.845Z,1880
2018-01-08T08:51:14.436Z,2876
2018-01-08T08:51:55.007Z,6888
2018-01-08T08:52:35.577Z,11628
2018-01-08T08:53:16.166Z,15072
2018-01-08T08:53:56.722Z,15552
2018-01-08T08:54:37.319Z,13280
2018-01-08T08:55:17.917Z,14240
2018-01-08T08:55:58.472Z,18176
2018-01-08T08:56:39.020Z,23008
2018-01-08T08:57:19.594Z,21760
2018-01-08T08:58:00.146Z,20640
2018-01-08T08:58:40.694Z,14976
2018-01-08T08:59:21.322Z,11776
2018-01-08T09:00:01.879Z,14528
2018-01-08T09:00:42.526Z,17344
2018-01-08T09:01:23.062Z,21952
2018-01-08T09:02:03.674Z,25600
2018-01-08T09:02:44.245Z,27584
2018-01-08T09:03:24.821Z,28128
2018-01-08T09:04:05.431Z,27264
2018-01-08T09:04:46.002Z,27392
2018-01-08T09:05:26.555Z,26048
2018-01-08T09:06:07.119Z,23968
2018-01-08T09:06:47.752Z,20864
2018-01-08T09:07:28.277Z,19392
2018-01-08T09:08:08.879Z,18976
2018-01-08T09:08:49.449Z,19584
2018-01-08T09:09:30.042Z,21248
2018-01-08T09:10:10.635Z,22432
2018-01-08T09:10:51.191Z,20960
2018-01-08T09:11:31.741Z,13728
2018-01-08T09:12:12.371Z,9948
2018-01-08T09:12:52.944Z,14944
2018-01-08T09:13:33.495Z,20704
2018-01-08T09:14:14.067Z,28864
2018-01-08T09:14:54.655Z,30752
2018-01-08T09:15:35.231Z,30336
2018-01-08T09:16:15.802Z,30816
2018-01-08T09:16:56.365Z,32832
2018-01-08T09:17:36.958Z,34624
2018-01-08T09:18:17.524Z,36000
2018-01-08T09:18:58.104Z,35424
2018-01-08T09:19:38.681Z,34816
2018-01-08T09:20:19.253Z,32064
2018-01-08T09:20:59.807Z,29280
2018-01-08T09:21:40.395Z,29664
2018-01-08T09:22:21.002Z,33760
2018-01-08T09:23:01.522Z,35680
2018-01-08T09:23:42.128Z,35200
2018-01-08T09:24:22.694Z,29376
2018-01-08T09:25:03.281Z,23008
2018-01-08T09:25:43.849Z,20896
2018-01-08T09:26:24.439Z,21760
2018-01-08T09:27:05.034Z,22432
2018-01-08T09:27:45.613Z,21984
2018-01-08T09:28:26.183Z,20832
2018-01-08T09:29:06.745Z,20480
2018-01-08T09:29:47.342Z,19584
2018-01-08T09:30:27.915Z,17344
2018-01-08T09:31:08.493Z,15328
2018-01-08T09:31:49.052Z,14880
2018-01-08T09:32:29.629Z,14912
2018-01-08T09:33:10.184Z,13696
2018-01-08T09:33:50.802Z,14592
2018-01-08T09:34:31.389Z,16416
2018-01-08T09:35:11.949Z,17472
2018-01-08T09:35:52.520Z,17568
2018-01-08T09:36:33.077Z,17120
2018-01-08T09:37:13.654Z,18016
2018-01-08T09:37:54.239Z,19584
2018-01-08T09:38:34.804Z,21344
2018-01-08T09:39:15.371Z,20672
2018-01-08T09:39:55.967Z,18880
2018-01-08T09:40:36.530Z,18464
2018-01-08T09:41:17.102Z,21216
2018-01-08T09:41:57.680Z,23264
2018-01-08T09:42:38.244Z,24736
2018-01-08T09:43:18.810Z,25760
2018-01-08T09:43:59.378Z,25408